sensor_id;sensor_type;location;lat;lon;timestamp;pressure;altitude;pressure_sealevel;temperature;humidity
24620;BME280;12763;55.802;37.404;2023-05-02T00:01:16;99995.25;;;5.60;100.00
24620;BME280;12763;55.802;37.404;2023-05-02T00:03:42;99988.22;;;5.65;100.00
24620;BME280;12763;55.802;37.404;2023-05-02T00:06:09;99997.47;;;5.56;100.00
24620;BME280;12763;55.802;37.404;2023-05-02T00:08:36;99997.44;;;5.64;100.00
24620;BME280;12763;55.802;37.404;2023-05-02T00:11:03;99998.34;;;5.49;100.00
24620;BME280;12763;55.802;37.404;2023-05-02T00:13:30;100004.09;;;5.70;100.00
24620;BME280;12763;55.802;37.404;2023-05-02T00:15:57;100004.78;;;5.64;100.00
24620;BME280;12763;55.802;37.404;2023-05-02T00:18:23;100006.31;;;5.66;100.00
24620;BME280;12763;55.802;37.404;2023-05-02T00:20:49;100012.72;;;5.51;100.00
24620;BME280;12763;55.802;37.404;2023-05-02T00:23:15;100016.66;;;5.48;100.00
24620;BME280;12763;55.802;37.404;2023-05-02T00:25:44;100020.75;;;5.52;100.00
24620;BME280;12763;55.802;37.404;2023-05-02T00:28:14;100016.97;;;5.53;100.00
24620;BME280;12763;55.802;37.404;2023-05-02T00:30:44;100025.75;;;5.41;100.00
24620;BME280;12763;55.802;37.404;2023-05-02T00:33:13;100026.59;;;5.41;100.00
24620;BME280;12763;55.802;37.404;2023-05-02T00:35:40;100024.22;;;5.38;100.00
24620;BME280;12763;55.802;37.404;2023-05-02T00:38:07;100030.38;;;5.32;100.00
24620;BME280;12763;55.802;37.404;2023-05-02T00:40:49;100024.22;;;5.38;100.00
24620;BME280;12763;55.802;37.404;2023-05-02T00:43:19;100025.22;;;5.45;100.00
24620;BME280;12763;55.802;37.404;2023-05-02T00:45:46;100031.72;;;5.36;100.00
24620;BME280;12763;55.802;37.404;2023-05-02T00:48:19;100039.59;;;5.31;100.00
24620;BME280;12763;55.802;37.404;2023-05-02T00:50:46;100038.25;;;5.19;100.00
24620;BME280;12763;55.802;37.404;2023-05-02T00:53:12;100045.09;;;5.15;100.00
24620;BME280;12763;55.802;37.404;2023-05-02T00:55:39;100052.44;;;5.06;100.00
24620;BME280;12763;55.802;37.404;2023-05-02T00:58:14;100050.75;;;5.21;100.00
24620;BME280;12763;55.802;37.404;2023-05-02T01:03:35;100051.44;;;5.07;100.00
24620;BME280;12763;55.802;37.404;2023-05-02T01:09:07;100062.88;;;5.19;100.00
24620;BME280;12763;55.802;37.404;2023-05-02T01:11:51;100061.84;;;5.12;100.00
24620;BME280;12763;55.802;37.404;2023-05-02T01:14:20;100066.78;;;5.08;100.00
24620;BME280;12763;55.802;37.404;2023-05-02T01:16:47;100069.91;;;5.05;100.00
24620;BME280;12763;55.802;37.404;2023-05-02T01:19:25;100070.72;;;5.14;100.00
24620;BME280;12763;55.802;37.404;2023-05-02T01:21:55;100072.09;;;5.18;100.00
24620;BME280;12763;55.802;37.404;2023-05-02T01:24:25;100074.84;;;5.10;100.00
24620;BME280;12763;55.802;37.404;2023-05-02T01:29:44;100089.19;;;5.12;100.00
24620;BME280;12763;55.802;37.404;2023-05-02T01:32:13;100082.03;;;5.11;100.00
24620;BME280;12763;55.802;37.404;2023-05-02T01:34:42;100097.06;;;5.07;100.00
24620;BME280;12763;55.802;37.404;2023-05-02T01:37:12;100098.28;;;5.04;100.00
24620;BME280;12763;55.802;37.404;2023-05-02T01:39:40;100095.69;;;5.03;100.00
24620;BME280;12763;55.802;37.404;2023-05-02T01:42:13;100107.16;;;4.98;100.00
24620;BME280;12763;55.802;37.404;2023-05-02T01:44:41;100110.88;;;4.81;100.00
24620;BME280;12763;55.802;37.404;2023-05-02T01:47:09;100110.72;;;4.83;100.00
24620;BME280;12763;55.802;37.404;2023-05-02T01:49:35;100111.06;;;4.88;100.00
24620;BME280;12763;55.802;37.404;2023-05-02T01:52:04;100110.75;;;4.91;100.00
24620;BME280;12763;55.802;37.404;2023-05-02T01:54:35;100117.88;;;4.84;100.00
24620;BME280;12763;55.802;37.404;2023-05-02T01:57:05;100123.34;;;4.75;100.00
24620;BME280;12763;55.802;37.404;2023-05-02T01:59:33;100125.19;;;4.67;100.00
24620;BME280;12763;55.802;37.404;2023-05-02T02:02:01;100119.25;;;4.80;100.00
24620;BME280;12763;55.802;37.404;2023-05-02T02:04:30;100131.03;;;4.72;100.00
24620;BME280;12763;55.802;37.404;2023-05-02T02:07:02;100132.94;;;4.80;100.00
24620;BME280;12763;55.802;37.404;2023-05-02T02:09:31;100139.38;;;4.62;100.00
24620;BME280;12763;55.802;37.404;2023-05-02T02:12:11;100139.81;;;5.00;100.00
24620;BME280;12763;55.802;37.404;2023-05-02T02:14:41;100135.69;;;4.96;100.00
24620;BME280;12763;55.802;37.404;2023-05-02T02:17:34;100142.19;;;4.95;100.00
24620;BME280;12763;55.802;37.404;2023-05-02T02:20:04;100151.72;;;4.74;100.00
24620;BME280;12763;55.802;37.404;2023-05-02T02:22:33;100144.22;;;4.93;100.00
24620;BME280;12763;55.802;37.404;2023-05-02T02:25:06;100146.09;;;4.92;100.00
24620;BME280;12763;55.802;37.404;2023-05-02T02:27:33;100153.13;;;5.03;100.00
24620;BME280;12763;55.802;37.404;2023-05-02T02:30:00;100159.66;;;5.10;100.00
24620;BME280;12763;55.802;37.404;2023-05-02T02:32:26;100158.47;;;5.20;100.00
24620;BME280;12763;55.802;37.404;2023-05-02T02:34:53;100169.94;;;5.24;100.00
24620;BME280;12763;55.802;37.404;2023-05-02T02:37:28;100169.25;;;5.30;100.00
24620;BME280;12763;55.802;37.404;2023-05-02T02:40:03;100165.81;;;5.28;100.00
24620;BME280;12763;55.802;37.404;2023-05-02T02:42:47;100165.34;;;5.32;100.00
24620;BME280;12763;55.802;37.404;2023-05-02T02:47:58;100171.16;;;5.38;100.00
24620;BME280;12763;55.802;37.404;2023-05-02T02:53:18;100163.09;;;5.68;100.00
24620;BME280;12763;55.802;37.404;2023-05-02T02:55:56;100169.06;;;5.72;100.00
24620;BME280;12763;55.802;37.404;2023-05-02T03:01:21;100172.19;;;5.85;100.00
24620;BME280;12763;55.802;37.404;2023-05-02T03:03:48;100180.22;;;5.86;100.00
24620;BME280;12763;55.802;37.404;2023-05-02T03:06:19;100168.91;;;5.98;100.00
24620;BME280;12763;55.802;37.404;2023-05-02T03:08:46;100183.28;;;6.00;100.00
24620;BME280;12763;55.802;37.404;2023-05-02T03:11:17;100187.38;;;6.04;100.00
24620;BME280;12763;55.802;37.404;2023-05-02T03:13:43;100189.59;;;6.08;100.00
24620;BME280;12763;55.802;37.404;2023-05-02T03:18:51;100188.53;;;6.25;100.00
24620;BME280;12763;55.802;37.404;2023-05-02T03:21:17;100197.59;;;6.34;100.00
24620;BME280;12763;55.802;37.404;2023-05-02T03:23:43;100204.25;;;6.39;100.00
24620;BME280;12763;55.802;37.404;2023-05-02T03:26:10;100205.25;;;6.46;100.00
24620;BME280;12763;55.802;37.404;2023-05-02T03:28:37;100209.88;;;6.54;100.00
24620;BME280;12763;55.802;37.404;2023-05-02T03:31:04;100208.97;;;6.62;100.00
24620;BME280;12763;55.802;37.404;2023-05-02T03:33:37;100212.03;;;6.67;100.00
24620;BME280;12763;55.802;37.404;2023-05-02T03:36:04;100216.28;;;6.77;99.83
24620;BME280;12763;55.802;37.404;2023-05-02T03:38:30;100222.81;;;6.76;98.83
24620;BME280;12763;55.802;37.404;2023-05-02T03:41:02;100220.19;;;6.83;99.22
24620;BME280;12763;55.802;37.404;2023-05-02T03:43:30;100229.97;;;6.85;98.67
24620;BME280;12763;55.802;37.404;2023-05-02T03:45:57;100230.31;;;6.82;98.04
24620;BME280;12763;55.802;37.404;2023-05-02T03:48:24;100223.69;;;6.69;98.62
24620;BME280;12763;55.802;37.404;2023-05-02T03:50:50;100223.66;;;6.77;97.91
24620;BME280;12763;55.802;37.404;2023-05-02T03:53:17;100232.41;;;6.72;97.51
24620;BME280;12763;55.802;37.404;2023-05-02T03:55:50;100235.59;;;6.92;97.15
24620;BME280;12763;55.802;37.404;2023-05-02T03:58:26;100240.22;;;6.91;96.71
24620;BME280;12763;55.802;37.404;2023-05-02T04:00:53;100237.91;;;7.11;95.50
24620;BME280;12763;55.802;37.404;2023-05-02T04:03:23;100241.41;;;7.28;95.17
24620;BME280;12763;55.802;37.404;2023-05-02T04:05:49;100245.53;;;7.24;94.47
24620;BME280;12763;55.802;37.404;2023-05-02T04:08:17;100247.88;;;7.35;94.42
24620;BME280;12763;55.802;37.404;2023-05-02T04:10:45;100248.97;;;7.26;94.11
24620;BME280;12763;55.802;37.404;2023-05-02T04:13:13;100246.19;;;7.34;94.03
24620;BME280;12763;55.802;37.404;2023-05-02T04:15:44;100259.25;;;7.54;93.13
24620;BME280;12763;55.802;37.404;2023-05-02T04:18:12;100260.09;;;7.55;92.44
24620;BME280;12763;55.802;37.404;2023-05-02T04:20:39;100255.34;;;7.72;91.49
24620;BME280;12763;55.802;37.404;2023-05-02T04:23:07;100252.53;;;7.80;91.55
24620;BME280;12763;55.802;37.404;2023-05-02T04:25:34;100254.38;;;7.87;90.91
24620;BME280;12763;55.802;37.404;2023-05-02T04:28:02;100258.53;;;8.06;90.03
24620;BME280;12763;55.802;37.404;2023-05-02T04:30:30;100254.84;;;8.13;89.29
24620;BME280;12763;55.802;37.404;2023-05-02T04:33:01;100262.97;;;8.30;88.42
24620;BME280;12763;55.802;37.404;2023-05-02T04:35:32;100266.69;;;8.37;87.99
24620;BME280;12763;55.802;37.404;2023-05-02T04:37:58;100269.72;;;8.42;87.28
24620;BME280;12763;55.802;37.404;2023-05-02T04:40:25;100271.66;;;8.56;86.31
24620;BME280;12763;55.802;37.404;2023-05-02T04:42:58;100276.38;;;8.62;85.42
24620;BME280;12763;55.802;37.404;2023-05-02T04:45:30;100269.38;;;8.74;85.09
24620;BME280;12763;55.802;37.404;2023-05-02T04:47:57;100281.50;;;8.65;84.75
24620;BME280;12763;55.802;37.404;2023-05-02T04:50:24;100280.19;;;8.61;83.87
24620;BME280;12763;55.802;37.404;2023-05-02T04:52:50;100285.22;;;8.86;83.16
24620;BME280;12763;55.802;37.404;2023-05-02T04:55:16;100289.41;;;8.97;82.32
24620;BME280;12763;55.802;37.404;2023-05-02T04:57:44;100282.94;;;9.05;81.21
24620;BME280;12763;55.802;37.404;2023-05-02T05:00:13;100288.72;;;8.95;81.35
24620;BME280;12763;55.802;37.404;2023-05-02T05:02:40;100296.31;;;8.93;81.18
24620;BME280;12763;55.802;37.404;2023-05-02T05:05:08;100288.81;;;9.02;81.88
24620;BME280;12763;55.802;37.404;2023-05-02T05:07:34;100280.19;;;9.05;81.08
24620;BME280;12763;55.802;37.404;2023-05-02T05:10:00;100291.66;;;9.23;79.56
24620;BME280;12763;55.802;37.404;2023-05-02T05:12:32;100291.66;;;9.23;78.72
24620;BME280;12763;55.802;37.404;2023-05-02T05:14:59;100292.44;;;9.17;79.33
24620;BME280;12763;55.802;37.404;2023-05-02T05:17:31;100294.19;;;9.39;78.72
24620;BME280;12763;55.802;37.404;2023-05-02T05:19:58;100296.22;;;9.66;76.68
24620;BME280;12763;55.802;37.404;2023-05-02T05:22:25;100297.34;;;9.72;75.29
24620;BME280;12763;55.802;37.404;2023-05-02T05:24:55;100297.19;;;9.59;75.46
24620;BME280;12763;55.802;37.404;2023-05-02T05:27:26;100297.34;;;9.72;75.07
24620;BME280;12763;55.802;37.404;2023-05-02T05:29:53;100304.00;;;9.77;74.28
24620;BME280;12763;55.802;37.404;2023-05-02T05:32:19;100307.34;;;9.94;73.53
24620;BME280;12763;55.802;37.404;2023-05-02T05:34:53;100303.84;;;10.07;72.96
24620;BME280;12763;55.802;37.404;2023-05-02T05:37:23;100299.91;;;9.94;72.98
24620;BME280;12763;55.802;37.404;2023-05-02T05:39:58;100301.97;;;10.07;73.01
24620;BME280;12763;55.802;37.404;2023-05-02T05:42:24;100300.88;;;10.08;72.93
24620;BME280;12763;55.802;37.404;2023-05-02T05:44:55;100307.56;;;10.14;72.87
24620;BME280;12763;55.802;37.404;2023-05-02T05:47:21;100298.19;;;10.29;71.93
24620;BME280;12763;55.802;37.404;2023-05-02T05:49:52;100297.28;;;10.50;70.18
24620;BME280;12763;55.802;37.404;2023-05-02T05:52:20;100296.69;;;10.54;68.28
24620;BME280;12763;55.802;37.404;2023-05-02T05:54:47;100301.66;;;10.66;67.73
24620;BME280;12763;55.802;37.404;2023-05-02T05:57:13;100300.03;;;10.78;67.00
24620;BME280;12763;55.802;37.404;2023-05-02T05:59:42;100293.16;;;10.95;65.84
24620;BME280;12763;55.802;37.404;2023-05-02T06:02:08;100302.94;;;10.97;65.69
24620;BME280;12763;55.802;37.404;2023-05-02T06:04:35;100309.44;;;11.17;64.72
24620;BME280;12763;55.802;37.404;2023-05-02T06:07:02;100301.56;;;11.14;63.62
24620;BME280;12763;55.802;37.404;2023-05-02T06:09:29;100299.75;;;11.35;61.40
24620;BME280;12763;55.802;37.404;2023-05-02T06:11:58;100308.44;;;11.32;61.02
24620;BME280;12763;55.802;37.404;2023-05-02T06:14:27;100302.13;;;11.44;59.96
24620;BME280;12763;55.802;37.404;2023-05-02T06:17:00;100308.09;;;11.48;60.12
24620;BME280;12763;55.802;37.404;2023-05-02T06:19:27;100305.53;;;11.46;58.13
24620;BME280;12763;55.802;37.404;2023-05-02T06:21:53;100307.38;;;11.73;57.10
24620;BME280;12763;55.802;37.404;2023-05-02T06:24:21;100303.97;;;11.78;55.91
24620;BME280;12763;55.802;37.404;2023-05-02T06:26:47;100303.13;;;11.77;54.75
24620;BME280;12763;55.802;37.404;2023-05-02T06:29:13;100301.66;;;11.88;54.81
24620;BME280;12763;55.802;37.404;2023-05-02T06:31:40;100299.16;;;12.00;53.98
24620;BME280;12763;55.802;37.404;2023-05-02T06:34:06;100305.25;;;11.82;53.94
24620;BME280;12763;55.802;37.404;2023-05-02T06:36:32;100302.31;;;11.97;52.52
24620;BME280;12763;55.802;37.404;2023-05-02T06:38:58;100307.41;;;11.93;50.26
24620;BME280;12763;55.802;37.404;2023-05-02T06:41:25;100310.81;;;11.89;50.35
24620;BME280;12763;55.802;37.404;2023-05-02T06:43:51;100314.72;;;12.14;50.05
24620;BME280;12763;55.802;37.404;2023-05-02T06:46:17;100309.59;;;12.24;49.10
24620;BME280;12763;55.802;37.404;2023-05-02T06:48:45;100308.53;;;12.18;47.09
24620;BME280;12763;55.802;37.404;2023-05-02T06:51:13;100314.94;;;12.32;45.89
24620;BME280;12763;55.802;37.404;2023-05-02T06:53:39;100313.03;;;12.65;46.24
24620;BME280;12763;55.802;37.404;2023-05-02T06:56:06;100308.13;;;12.15;46.30
24620;BME280;12763;55.802;37.404;2023-05-02T06:58:33;100316.44;;;12.28;47.02
24620;BME280;12763;55.802;37.404;2023-05-02T07:00:59;100314.53;;;12.48;46.81
24620;BME280;12763;55.802;37.404;2023-05-02T07:03:25;100311.78;;;12.48;46.93
24620;BME280;12763;55.802;37.404;2023-05-02T07:05:51;100307.50;;;12.72;46.69
24620;BME280;12763;55.802;37.404;2023-05-02T07:08:17;100311.75;;;13.01;46.64
24620;BME280;12763;55.802;37.404;2023-05-02T07:10:43;100301.75;;;12.86;46.50
24620;BME280;12763;55.802;37.404;2023-05-02T07:13:09;100301.09;;;12.84;46.14
24620;BME280;12763;55.802;37.404;2023-05-02T07:15:35;100305.78;;;12.90;45.94
24620;BME280;12763;55.802;37.404;2023-05-02T07:18:01;100316.41;;;12.93;45.96
24620;BME280;12763;55.802;37.404;2023-05-02T07:20:27;100316.03;;;12.83;45.20
24620;BME280;12763;55.802;37.404;2023-05-02T07:22:53;100312.59;;;13.08;45.43
24620;BME280;12763;55.802;37.404;2023-05-02T07:25:19;100308.75;;;12.82;44.82
24620;BME280;12763;55.802;37.404;2023-05-02T07:27:45;100305.78;;;12.90;45.12
24620;BME280;12763;55.802;37.404;2023-05-02T07:30:12;100305.78;;;12.51;44.90
24620;BME280;12763;55.802;37.404;2023-05-02T07:32:38;100300.44;;;12.95;45.11
24620;BME280;12763;55.802;37.404;2023-05-02T07:35:04;100301.47;;;13.27;44.63
24620;BME280;12763;55.802;37.404;2023-05-02T07:37:32;100310.03;;;13.00;45.36
24620;BME280;12763;55.802;37.404;2023-05-02T07:40:03;100304.72;;;13.11;44.69
24620;BME280;12763;55.802;37.404;2023-05-02T07:42:31;100299.03;;;13.50;44.69
24620;BME280;12763;55.802;37.404;2023-05-02T07:44:58;100293.09;;;13.47;44.67
24620;BME280;12763;55.802;37.404;2023-05-02T07:47:24;100294.22;;;13.26;43.89
24620;BME280;12763;55.802;37.404;2023-05-02T07:49:52;100288.97;;;13.63;43.54
24620;BME280;12763;55.802;37.404;2023-05-02T07:52:19;100294.44;;;13.76;43.37
24620;BME280;12763;55.802;37.404;2023-05-02T07:54:47;100283.75;;;13.79;43.14
24620;BME280;12763;55.802;37.404;2023-05-02T07:57:14;100283.03;;;13.52;43.52
24620;BME280;12763;55.802;37.404;2023-05-02T07:59:40;100293.69;;;13.56;43.43
24620;BME280;12763;55.802;37.404;2023-05-02T08:02:06;100291.75;;;13.56;43.67
24620;BME280;12763;55.802;37.404;2023-05-02T08:04:33;100285.84;;;13.84;42.86
24620;BME280;12763;55.802;37.404;2023-05-02T08:06:59;100283.63;;;13.99;42.51
24620;BME280;12763;55.802;37.404;2023-05-02T08:09:25;100281.59;;;13.81;41.87
24620;BME280;12763;55.802;37.404;2023-05-02T08:11:51;100287.22;;;14.06;41.42
24620;BME280;12763;55.802;37.404;2023-05-02T08:14:18;100282.56;;;14.00;41.35
24620;BME280;12763;55.802;37.404;2023-05-02T08:16:44;100287.97;;;14.20;40.98
24620;BME280;12763;55.802;37.404;2023-05-02T08:19:10;100282.41;;;14.20;40.93
24620;BME280;12763;55.802;37.404;2023-05-02T08:21:36;100286.69;;;14.22;40.73
24620;BME280;12763;55.802;37.404;2023-05-02T08:24:02;100289.63;;;13.96;39.74
24620;BME280;12763;55.802;37.404;2023-05-02T08:26:28;100282.88;;;14.48;39.70
24620;BME280;12763;55.802;37.404;2023-05-02T08:28:54;100283.00;;;14.28;39.33
24620;BME280;12763;55.802;37.404;2023-05-02T08:31:20;100286.06;;;14.20;38.69
24620;BME280;12763;55.802;37.404;2023-05-02T08:33:46;100277.78;;;14.13;39.83
24620;BME280;12763;55.802;37.404;2023-05-02T08:36:14;100269.63;;;14.50;39.52
24620;BME280;12763;55.802;37.404;2023-05-02T08:38:42;100273.22;;;14.75;39.64
24620;BME280;12763;55.802;37.404;2023-05-02T08:41:16;100259.06;;;14.58;39.20
24620;BME280;12763;55.802;37.404;2023-05-02T08:43:43;100270.28;;;14.70;39.36
24620;BME280;12763;55.802;37.404;2023-05-02T08:46:12;100273.50;;;14.92;38.98
24620;BME280;12763;55.802;37.404;2023-05-02T08:48:39;100266.00;;;14.74;38.49
24620;BME280;12763;55.802;37.404;2023-05-02T08:51:08;100265.88;;;14.62;37.93
24620;BME280;12763;55.802;37.404;2023-05-02T08:53:35;100265.56;;;14.52;38.46
24620;BME280;12763;55.802;37.404;2023-05-02T08:56:02;100269.91;;;14.91;38.09
24620;BME280;12763;55.802;37.404;2023-05-02T08:58:28;100264.28;;;14.73;37.96
24620;BME280;12763;55.802;37.404;2023-05-02T09:01:02;100257.78;;;14.86;37.26
24620;BME280;12763;55.802;37.404;2023-05-02T09:03:33;100263.22;;;14.49;37.62
24620;BME280;12763;55.802;37.404;2023-05-02T09:06:16;100266.09;;;14.61;35.86
24620;BME280;12763;55.802;37.404;2023-05-02T09:08:45;100257.81;;;14.79;37.06
24620;BME280;12763;55.802;37.404;2023-05-02T09:11:13;100257.00;;;15.15;37.12
24620;BME280;12763;55.802;37.404;2023-05-02T09:18:45;100256.63;;;15.11;36.77
24620;BME280;12763;55.802;37.404;2023-05-02T09:21:16;100254.09;;;15.10;36.06
24620;BME280;12763;55.802;37.404;2023-05-02T09:23:45;100250.28;;;15.41;36.49
24620;BME280;12763;55.802;37.404;2023-05-02T09:26:20;100249.50;;;15.70;36.04
24620;BME280;12763;55.802;37.404;2023-05-02T09:28:52;100250.81;;;15.97;35.46
24620;BME280;12763;55.802;37.404;2023-05-02T09:31:23;100246.38;;;15.96;34.30
24620;BME280;12763;55.802;37.404;2023-05-02T09:33:53;100256.69;;;16.19;33.86
24620;BME280;12763;55.802;37.404;2023-05-02T09:36:20;100246.19;;;16.21;33.84
24620;BME280;12763;55.802;37.404;2023-05-02T09:38:48;100254.28;;;16.75;33.79
24620;BME280;12763;55.802;37.404;2023-05-02T09:41:15;100237.69;;;16.69;33.41
24620;BME280;12763;55.802;37.404;2023-05-02T09:43:54;100232.94;;;17.16;32.09
24620;BME280;12763;55.802;37.404;2023-05-02T09:46:23;100234.41;;;16.83;32.83
24620;BME280;12763;55.802;37.404;2023-05-02T09:51:18;100246.69;;;16.41;33.48
24620;BME280;12763;55.802;37.404;2023-05-02T09:53:44;100248.25;;;16.25;33.81
24620;BME280;12763;55.802;37.404;2023-05-02T09:56:11;100241.44;;;16.63;32.83
24620;BME280;12763;55.802;37.404;2023-05-02T09:58:37;100223.06;;;17.36;32.33
24620;BME280;12763;55.802;37.404;2023-05-02T10:01:03;100222.00;;;17.77;31.95
24620;BME280;12763;55.802;37.404;2023-05-02T10:03:30;100220.22;;;18.16;31.74
24620;BME280;12763;55.802;37.404;2023-05-02T10:05:59;100226.13;;;18.03;31.82
24620;BME280;12763;55.802;37.404;2023-05-02T10:08:26;100220.47;;;18.14;32.41
24620;BME280;12763;55.802;37.404;2023-05-02T10:10:55;100216.13;;;18.68;31.75
24620;BME280;12763;55.802;37.404;2023-05-02T10:13:24;100213.69;;;19.10;31.25
24620;BME280;12763;55.802;37.404;2023-05-02T10:16:05;100212.44;;;19.01;30.12
24620;BME280;12763;55.802;37.404;2023-05-02T10:21:23;100205.72;;;19.62;30.20
24620;BME280;12763;55.802;37.404;2023-05-02T10:23:50;100204.78;;;20.05;30.21
24620;BME280;12763;55.802;37.404;2023-05-02T10:26:18;100201.28;;;20.46;29.97
24620;BME280;12763;55.802;37.404;2023-05-02T10:28:46;100187.66;;;21.02;29.50
24620;BME280;12763;55.802;37.404;2023-05-02T10:31:13;100187.88;;;21.32;29.73
24620;BME280;12763;55.802;37.404;2023-05-02T10:33:40;100196.63;;;21.46;29.21
24620;BME280;12763;55.802;37.404;2023-05-02T10:36:09;100198.28;;;21.32;29.09
24620;BME280;12763;55.802;37.404;2023-05-02T10:38:36;100192.53;;;21.12;29.27
24620;BME280;12763;55.802;37.404;2023-05-02T10:41:07;100195.22;;;21.43;27.68
24620;BME280;12763;55.802;37.404;2023-05-02T10:43:35;100185.53;;;21.81;27.92
24620;BME280;12763;55.802;37.404;2023-05-02T10:46:02;100182.00;;;22.41;27.17
24620;BME280;12763;55.802;37.404;2023-05-02T10:49:15;100182.31;;;22.80;25.85
24620;BME280;12763;55.802;37.404;2023-05-02T10:51:41;100184.25;;;23.00;27.15
24620;BME280;12763;55.802;37.404;2023-05-02T10:54:21;100185.66;;;22.82;25.70
24620;BME280;12763;55.802;37.404;2023-05-02T10:57:13;100182.84;;;22.37;25.75
24620;BME280;12763;55.802;37.404;2023-05-02T10:59:41;100182.19;;;23.30;26.65
24620;BME280;12763;55.802;37.404;2023-05-02T11:05:00;100176.50;;;23.51;24.52
24620;BME280;12763;55.802;37.404;2023-05-02T11:07:36;100182.31;;;22.75;26.45
24620;BME280;12763;55.802;37.404;2023-05-02T11:12:49;100176.59;;;20.80;26.59
24620;BME280;12763;55.802;37.404;2023-05-02T11:18:10;100160.63;;;23.75;25.68
24620;BME280;12763;55.802;37.404;2023-05-02T11:20:41;100160.91;;;23.68;25.76
24620;BME280;12763;55.802;37.404;2023-05-02T11:25:45;100164.88;;;23.62;24.13
24620;BME280;12763;55.802;37.404;2023-05-02T11:28:38;100155.75;;;23.21;24.12
24620;BME280;12763;55.802;37.404;2023-05-02T11:36:33;100156.25;;;23.92;23.94
24620;BME280;12763;55.802;37.404;2023-05-02T11:39:03;100140.44;;;24.40;24.53
24620;BME280;12763;55.802;37.404;2023-05-02T11:41:42;100142.91;;;24.81;24.00
24620;BME280;12763;55.802;37.404;2023-05-02T11:44:09;100134.47;;;25.28;24.15
24620;BME280;12763;55.802;37.404;2023-05-02T11:46:39;100134.44;;;25.76;23.42
24620;BME280;12763;55.802;37.404;2023-05-02T11:49:06;100128.75;;;26.13;23.17
24620;BME280;12763;55.802;37.404;2023-05-02T11:51:38;100131.06;;;24.45;24.00
24620;BME280;12763;55.802;37.404;2023-05-02T11:54:05;100129.78;;;23.39;24.35
24620;BME280;12763;55.802;37.404;2023-05-02T11:56:33;100139.63;;;23.96;24.27
24620;BME280;12763;55.802;37.404;2023-05-02T11:59:00;100116.94;;;24.79;23.63
24620;BME280;12763;55.802;37.404;2023-05-02T12:01:28;100130.63;;;24.62;23.42
24620;BME280;12763;55.802;37.404;2023-05-02T12:04:05;100127.63;;;24.53;22.49
24620;BME280;12763;55.802;37.404;2023-05-02T12:06:33;100126.09;;;24.66;23.39
24620;BME280;12763;55.802;37.404;2023-05-02T12:09:08;100111.00;;;24.80;22.58
24620;BME280;12763;55.802;37.404;2023-05-02T12:11:35;100116.78;;;24.94;23.40
24620;BME280;12763;55.802;37.404;2023-05-02T12:14:03;100116.63;;;25.75;23.04
24620;BME280;12763;55.802;37.404;2023-05-02T12:16:31;100103.81;;;26.01;22.85
24620;BME280;12763;55.802;37.404;2023-05-02T12:18:57;100108.75;;;25.91;22.36
24620;BME280;12763;55.802;37.404;2023-05-02T12:21:27;100107.91;;;25.29;23.08
24620;BME280;12763;55.802;37.404;2023-05-02T12:23:55;100111.22;;;25.79;23.07
24620;BME280;12763;55.802;37.404;2023-05-02T12:26:23;100103.31;;;25.33;23.06
24620;BME280;12763;55.802;37.404;2023-05-02T12:28:57;100101.47;;;25.47;22.94
24620;BME280;12763;55.802;37.404;2023-05-02T12:31:24;100106.41;;;26.16;22.43
24620;BME280;12763;55.802;37.404;2023-05-02T12:33:52;100106.16;;;25.76;22.92
24620;BME280;12763;55.802;37.404;2023-05-02T12:36:23;100101.69;;;25.27;23.13
24620;BME280;12763;55.802;37.404;2023-05-02T12:38:54;100101.69;;;24.17;23.28
24620;BME280;12763;55.802;37.404;2023-05-02T12:41:33;100101.25;;;24.68;22.26
24620;BME280;12763;55.802;37.404;2023-05-02T12:44:00;100097.97;;;25.55;22.43
24620;BME280;12763;55.802;37.404;2023-05-02T12:46:26;100088.28;;;25.61;22.43
24620;BME280;12763;55.802;37.404;2023-05-02T12:49:08;100092.78;;;26.00;21.45
24620;BME280;12763;55.802;37.404;2023-05-02T12:51:34;100087.00;;;26.42;22.09
24620;BME280;12763;55.802;37.404;2023-05-02T12:54:02;100083.78;;;26.95;21.52
24620;BME280;12763;55.802;37.404;2023-05-02T12:56:29;100091.16;;;26.31;21.62
24620;BME280;12763;55.802;37.404;2023-05-02T12:58:59;100082.84;;;26.02;21.83
24620;BME280;12763;55.802;37.404;2023-05-02T13:01:32;100089.44;;;25.98;21.80
24620;BME280;12763;55.802;37.404;2023-05-02T13:03:59;100091.78;;;26.28;21.75
24620;BME280;12763;55.802;37.404;2023-05-02T13:06:25;100081.47;;;26.97;21.30
24620;BME280;12763;55.802;37.404;2023-05-02T13:08:51;100086.00;;;27.25;21.21
24620;BME280;12763;55.802;37.404;2023-05-02T13:11:17;100082.69;;;27.72;21.07
24620;BME280;12763;55.802;37.404;2023-05-02T13:13:44;100074.00;;;28.05;20.72
24620;BME280;12763;55.802;37.404;2023-05-02T13:16:10;100084.09;;;27.97;20.83
24620;BME280;12763;55.802;37.404;2023-05-02T13:18:36;100066.44;;;27.64;20.93
24620;BME280;12763;55.802;37.404;2023-05-02T13:21:02;100074.53;;;27.30;21.15
24620;BME280;12763;55.802;37.404;2023-05-02T13:23:29;100077.03;;;25.94;21.61
24620;BME280;12763;55.802;37.404;2023-05-02T13:25:55;100063.38;;;26.01;22.10
24620;BME280;12763;55.802;37.404;2023-05-02T13:28:21;100055.63;;;25.88;21.82
24620;BME280;12763;55.802;37.404;2023-05-02T13:30:48;100063.94;;;26.49;21.61
24620;BME280;12763;55.802;37.404;2023-05-02T13:33:14;100058.31;;;27.71;20.55
24620;BME280;12763;55.802;37.404;2023-05-02T13:35:40;100051.94;;;28.24;20.02
24620;BME280;12763;55.802;37.404;2023-05-02T13:38:06;100054.84;;;28.10;20.36